createdAt,value
2023-02-05T00:02:05.468Z,25.9
2023-02-05T00:07:43.813Z,27.1
2023-02-05T00:13:06.986Z,24.3
2023-02-05T00:18:44.230Z,24.9
2023-02-05T00:24:22.535Z,26.6
2023-02-05T00:30:01.553Z,25.8
2023-02-05T00:35:39.810Z,24.6
2023-02-05T00:41:18.314Z,25.9
2023-02-05T00:46:56.066Z,27.1
2023-02-05T00:52:34.439Z,24.8
2023-02-05T00:58:13.933Z,25.4
2023-02-05T01:03:51.962Z,26.5
2023-02-05T01:09:29.007Z,26.4
2023-02-05T01:15:07.630Z,24.6
2023-02-05T01:20:45.562Z,25.8
2023-02-05T01:26:24.039Z,27.1
2023-02-05T01:32:03.141Z,24.9
2023-02-05T01:37:40.920Z,25.4
2023-02-05T01:43:03.427Z,26.4
2023-02-05T01:48:41.766Z,27.3
2023-02-05T01:54:33.747Z,24.6
2023-02-05T02:00:10.481Z,25.8
2023-02-05T02:05:48.799Z,26.8
2023-02-05T02:11:26.882Z,24.3
2023-02-05T02:17:04.549Z,26.2
2023-02-05T02:22:42.281Z,27.4
2023-02-05T02:28:05.557Z,24.6
2023-02-05T02:33:43.562Z,25.9
2023-02-05T02:39:21.918Z,27.1
2023-02-05T02:44:44.577Z,24.8
2023-02-05T02:50:23.043Z,25.5
2023-02-05T02:55:29.974Z,26.6
2023-02-05T03:00:52.782Z,26.3
2023-02-05T03:06:20.310Z,24.4
2023-02-05T03:11:43.097Z,26.1
2023-02-05T03:16:35.054Z,27.1
2023-02-05T03:21:57.615Z,24.8
2023-02-05T03:27:35.515Z,25.5
2023-02-05T03:32:57.730Z,26.7
2023-02-05T03:38:36.341Z,26.6
2023-02-05T03:44:14.843Z,24.5
2023-02-05T03:49:52.811Z,26.1
2023-02-05T03:55:20.420Z,26.4
2023-02-05T04:00:58.243Z,24.4
2023-02-05T04:06:20.487Z,26.1
2023-02-05T04:11:43.046Z,27.3
2023-02-05T04:17:07.160Z,24.6
2023-02-05T04:22:30.064Z,25.6
2023-02-05T04:28:07.936Z,26.8
2023-02-05T04:33:46.774Z,25.8
2023-02-05T04:39:24.984Z,24.8
2023-02-05T04:44:47.236Z,26.2
2023-02-05T04:50:25.264Z,27.2
2023-02-05T04:56:02.573Z,24.6
2023-02-05T05:01:24.911Z,25.7
2023-02-05T05:07:02.870Z,26.8
2023-02-05T05:12:24.933Z,25.6
2023-02-05T05:18:03.593Z,24.9
2023-02-05T05:23:42.023Z,26.2
2023-02-05T05:29:19.378Z,27.3
2023-02-05T05:34:57.851Z,24.6
2023-02-05T05:40:35.928Z,25.6
2023-02-05T05:46:13.743Z,26.7
2023-02-05T05:51:50.781Z,22.4
2023-02-05T05:57:29.568Z,24.4
2023-02-05T06:03:06.933Z,26
2023-02-05T06:08:45.272Z,27.1
2023-02-05T06:14:10.330Z,24.6
2023-02-05T06:19:48.688Z,25.6
2023-02-05T06:25:26.396Z,26.7
2023-02-05T06:31:05.375Z,26.1
2023-02-05T06:36:43.536Z,24.6
2023-02-05T06:42:35.659Z,26.1
2023-02-05T06:48:14.291Z,27.1
2023-02-05T06:53:37.215Z,24.6
2023-02-05T06:59:14.716Z,25.5
2023-02-05T07:04:53.290Z,26.6
2023-02-05T07:10:31.884Z,26.3
2023-02-05T07:15:54.501Z,24.5
2023-02-05T07:21:32.839Z,26.1
2023-02-05T07:26:55.189Z,27
2023-02-05T07:32:33.842Z,22.9
2023-02-05T07:38:12.068Z,25.6
2023-02-05T07:43:34.724Z,26.9
2023-02-05T07:48:57.937Z,24.9
2023-02-05T07:54:36.607Z,25.4
2023-02-05T08:00:28.486Z,26.5
2023-02-05T08:06:06.941Z,26.9
2023-02-05T08:11:46.419Z,24.3
2023-02-05T08:17:30.843Z,26
2023-02-05T08:23:08.521Z,27.1
2023-02-05T08:28:47.285Z,24.6
2023-02-05T08:34:09.403Z,25.4
2023-02-05T08:39:32.258Z,26.7
2023-02-05T08:45:10.222Z,25.9
2023-02-05T08:51:01.753Z,24.3
2023-02-05T08:56:40.297Z,26.1
2023-02-05T09:02:19.035Z,27.3
2023-02-05T09:26:28.853Z,24
2023-02-05T09:32:07.605Z,26
2023-02-05T09:37:45.419Z,27.3
2023-02-05T09:44:28.689Z,24.4
2023-02-05T09:50:07.325Z,26
2023-02-05T09:55:46.351Z,27.2
2023-02-05T10:01:33.109Z,24.4
2023-02-05T10:07:10.741Z,25.7
2023-02-05T10:12:32.221Z,26.9
2023-02-05T10:18:11.240Z,24.9
2023-02-05T10:23:49.080Z,25.4
2023-02-05T10:29:27.379Z,26.6
2023-02-05T10:35:06.861Z,26
2023-02-05T10:40:29.095Z,24.3
2023-02-05T10:46:09.682Z,26
2023-02-05T10:51:48.727Z,27.2
2023-02-05T10:57:26.522Z,24.5
2023-02-05T11:03:04.639Z,25.6
2023-02-05T11:08:43.035Z,26.7
2023-02-05T11:14:06.990Z,25
2023-02-05T11:19:44.906Z,26.4
2023-02-05T11:25:23.726Z,26.3
2023-02-05T11:31:26.905Z,24.2
2023-02-05T11:36:49.360Z,26.2
2023-02-05T11:42:28.297Z,27.3
2023-02-05T11:48:07.189Z,24.4
2023-02-05T11:53:29.331Z,25.8
2023-02-05T11:59:19.008Z,27
2023-02-05T12:04:57.525Z,24.6
2023-02-05T12:10:34.796Z,25.4
2023-02-05T12:16:16.262Z,26.8
2023-02-05T12:21:54.091Z,25
2023-02-05T12:27:31.544Z,25.3
2023-02-05T12:32:54.620Z,26.4
2023-02-05T12:38:47.233Z,26.3
2023-02-05T12:44:09.207Z,24.3
2023-02-05T12:49:48.284Z,26.1
2023-02-05T12:55:25.560Z,27.2
2023-02-05T13:01:03.338Z,25.2
2023-02-05T13:06:42.793Z,26.8
2023-02-05T13:12:20.591Z,24.9
2023-02-05T13:17:59.402Z,25.5
2023-02-05T13:23:37.854Z,26.8
2023-02-05T13:29:22.695Z,24.9
2023-02-05T13:35:05.459Z,25.4
2023-02-05T13:40:47.359Z,26.7
2023-02-05T13:46:26.094Z,25.3
2023-02-05T13:52:05.177Z,25.3
2023-02-05T13:57:28.337Z,26.4
2023-02-05T14:03:07.453Z,26.4
2023-02-05T14:08:44.957Z,24.2
2023-02-05T14:14:35.146Z,26.2
2023-02-05T14:20:13.589Z,27.3
2023-02-05T14:25:36.358Z,24.3
2023-02-05T14:31:18.112Z,25.9
2023-02-05T14:36:53.089Z,27
2023-02-05T14:42:15.006Z,25.8
2023-02-05T14:47:59.836Z,24.6
2023-02-05T14:53:22.416Z,26.4
2023-02-05T14:59:00.352Z,27.2
2023-02-05T15:04:10.669Z,24.2
2023-02-05T15:09:48.685Z,26.1
2023-02-05T15:15:26.986Z,27.2
2023-02-05T15:20:49.779Z,24.6
2023-02-05T15:26:34.200Z,25.9
2023-02-05T15:31:57.100Z,26.9
2023-02-05T15:37:35.728Z,24.9
2023-02-05T15:43:13.531Z,25.7
2023-02-05T15:48:51.122Z,26.8
2023-02-05T15:54:29.122Z,25.1
2023-02-05T15:59:51.908Z,24.3
2023-02-05T16:05:30.266Z,23.8
2023-02-05T16:10:53.843Z,23.1
2023-02-05T16:16:32.200Z,22.4
2023-02-05T16:21:54.784Z,21.8
2023-02-05T16:27:17.913Z,21.2
2023-02-05T16:33:09.095Z,20.6
2023-02-05T16:38:46.515Z,20.1
2023-02-05T16:44:10.323Z,19.6
2023-02-05T16:49:48.491Z,19.1
2023-02-05T17:00:49.888Z,18.3
2023-02-05T17:06:13.374Z,17.9
2023-02-05T17:11:36.011Z,17.6
2023-02-05T17:17:15.013Z,17.3
2023-02-05T17:28:15.649Z,16.8
2023-02-05T17:33:54.450Z,16.6
2023-02-05T17:39:35.665Z,16.4
2023-02-05T17:45:16.320Z,16.3
2023-02-05T17:50:55.061Z,16.3
2023-02-05T17:56:02.468Z,16.5
2023-02-05T18:01:25.095Z,16.9
2023-02-05T18:07:03.669Z,17.3
2023-02-05T18:12:26.704Z,17.8
2023-02-05T18:17:49.186Z,18.3
2023-02-05T18:23:24.238Z,18.6
2023-02-05T18:28:51.089Z,18.9
2023-02-05T18:34:17.466Z,19.1
2023-02-05T18:39:57.299Z,19.2
2023-02-05T18:45:20.132Z,19.1
2023-02-05T18:51:00.658Z,19
2023-02-05T18:56:23.406Z,18.8
2023-02-05T19:01:46.642Z,18.6
2023-02-05T19:07:24.833Z,18.4
2023-02-05T19:13:02.776Z,18.2
2023-02-05T19:18:42.779Z,18.1
2023-02-05T19:24:21.772Z,17.9
2023-02-05T19:30:00.214Z,17.8
2023-02-05T19:35:39.391Z,17.8
2023-02-05T19:41:17.403Z,17.7
2023-02-05T19:46:55.778Z,17.6
2023-02-05T19:52:18.903Z,17.5
2023-02-05T19:57:42.654Z,17.5
2023-02-05T20:03:07.779Z,17.6
2023-02-05T20:08:46.203Z,17.7
2023-02-05T20:14:25.284Z,17.7
2023-02-05T20:20:12.576Z,17.7
2023-02-05T20:25:55.871Z,17.6
2023-02-05T20:31:34.588Z,17.4
2023-02-05T20:37:12.922Z,17.3
2023-02-05T20:42:51.397Z,17.1
2023-02-05T20:48:13.966Z,16.9
2023-02-05T20:54:06.445Z,16.8
2023-02-05T20:59:45.311Z,16.6
2023-02-05T21:05:25.591Z,16.4
2023-02-05T21:11:03.054Z,16.1
2023-02-05T21:16:41.112Z,16
2023-02-05T21:21:48.504Z,15.4
2023-02-05T21:27:12.317Z,25.3
2023-02-05T21:32:51.381Z,24.4
2023-02-05T21:38:28.888Z,24.4
2023-02-05T21:44:03.412Z,25.6
2023-02-05T21:49:42.041Z,27.3
2023-02-05T21:55:04.229Z,26
2023-02-05T22:00:42.345Z,25.6
2023-02-05T22:05:50.056Z,24.8
2023-02-05T22:10:59.339Z,26.2
2023-02-05T22:16:37.424Z,27.3
2023-02-05T22:22:15.868Z,25.6
2023-02-05T22:27:54.478Z,25.2
2023-02-05T22:33:17.907Z,25.1
2023-02-05T22:38:56.632Z,26.5
2023-02-05T22:44:34.642Z,25.9
2023-02-05T22:50:12.682Z,25.1
2023-02-05T22:55:35.815Z,25.8
2023-02-05T23:01:17.065Z,27
2023-02-05T23:06:39.253Z,25.3
2023-02-05T23:12:05.107Z,25.3
2023-02-05T23:17:42.508Z,26.4
2023-02-05T23:23:20.228Z,26.6
2023-02-05T23:28:58.869Z,24.9
2023-02-05T23:34:21.724Z,26
2023-02-05T23:40:00.264Z,27.1
2023-02-05T23:45:38.344Z,25.1
2023-02-05T23:51:15.446Z,25.7
2023-02-05T23:56:53.684Z,26.8
